KHST/HST METAR and TAF weather

Enter ICAO airport designator
Station Type Date Time Source
KHST METAR 2024/06/14 20:55 UTC NOAA

KHST 142055Z AUTO 16003KT 10SM FEW190 30/24 A2987 RMK AO2 SLP118 T02960242 55011


Station Type Date Time Source
KHST Decoded METAR 2024/06/14 20:55 UTC NOAA

Homestead Air Force Base, FL, United States (KHST) 25-29N 080-23W
Jun 14, 2024 - 04:55 PM EDT / 2024.06.14 2055 UTC
Wind: from the SSE (160 degrees) at 3 MPH (3 KT):0
Visibility: 10 mile(s):0
Sky conditions: mostly clear
Temperature: 85.3 F (29.6 C)
Heat index: 94.3 F (34.6 C):1
Dew Point: 75.6 F (24.2 C)
Relative Humidity: 72%
Pressure (altimeter): 29.87 in. Hg (1011 hPa)
Pressure tendency: 0.03 inches (1.1 hPa) lower than three hours ago
ob: KHST 142055Z AUTO 16003KT 10SM FEW190 30/24 A2987 RMK AO2 SLP118 T02960242 55011
cycle: 21

Station Type Date Time Source
KHST TAF 2024/06/14 19:15 UTC NOAA